createdAt,value
2022-10-24T00:01:44.026Z,99.90
2022-10-24T00:04:11.233Z,99.90
2022-10-24T00:06:39.798Z,99.90
2022-10-24T00:09:07.784Z,99.90
2022-10-24T00:11:35.425Z,99.90
2022-10-24T00:14:03.697Z,99.90
2022-10-24T00:16:31.809Z,99.90
2022-10-24T00:18:59.076Z,99.90
2022-10-24T00:21:26.678Z,99.90
2022-10-24T00:23:54.349Z,99.90
2022-10-24T00:26:25.979Z,99.90
2022-10-24T00:28:53.273Z,99.90
2022-10-24T00:31:20.579Z,99.90
2022-10-24T00:33:47.900Z,99.90
2022-10-24T00:36:22.758Z,99.90
2022-10-24T00:38:51.528Z,99.90
2022-10-24T00:41:22.884Z,99.90
2022-10-24T00:43:51.565Z,99.90
2022-10-24T00:46:23.014Z,99.90
2022-10-24T00:48:55.550Z,99.90
2022-10-24T00:51:33.037Z,99.90
2022-10-24T00:54:05.088Z,99.90
2022-10-24T00:56:41.525Z,99.90
2022-10-24T00:59:14.350Z,99.90
2022-10-24T01:01:46.168Z,99.90
2022-10-24T01:04:15.899Z,99.90
2022-10-24T01:07:03.065Z,99.90
2022-10-24T01:09:54.765Z,99.90
2022-10-24T01:12:42.148Z,99.90
2022-10-24T01:15:42.814Z,99.90
2022-10-24T01:18:23.817Z,99.90
2022-10-24T01:21:09.460Z,99.90
2022-10-24T01:24:02.771Z,99.90
2022-10-24T01:26:38.853Z,99.90
2022-10-24T01:29:20.033Z,99.90
2022-10-24T01:32:01.677Z,99.90
2022-10-24T01:34:41.360Z,99.90
2022-10-24T01:37:18.377Z,99.90
2022-10-24T01:39:51.191Z,99.90
2022-10-24T01:42:22.205Z,99.90
2022-10-24T01:44:53.799Z,99.90
2022-10-24T01:47:26.659Z,99.90
2022-10-24T01:50:05.076Z,99.90
2022-10-24T01:52:36.121Z,99.90
2022-10-24T01:55:04.813Z,99.90
2022-10-24T01:57:33.682Z,99.90
2022-10-24T02:00:01.559Z,99.90
2022-10-24T02:02:37.534Z,99.90
2022-10-24T02:05:17.637Z,99.90
2022-10-24T02:07:50.874Z,99.90
2022-10-24T02:10:34.601Z,99.90
2022-10-24T02:13:11.248Z,99.90
2022-10-24T02:15:47.193Z,99.90
2022-10-24T02:18:15.125Z,99.90
2022-10-24T02:21:10.200Z,99.90
2022-10-24T02:23:47.984Z,99.90
2022-10-24T02:26:26.835Z,99.90
2022-10-24T02:28:59.153Z,99.90
2022-10-24T02:31:34.329Z,99.90
2022-10-24T02:34:09.643Z,99.90
2022-10-24T02:36:39.081Z,99.90
2022-10-24T02:39:09.375Z,99.90
2022-10-24T02:41:39.887Z,99.90
2022-10-24T02:44:11.483Z,99.90
2022-10-24T02:46:44.716Z,99.90
2022-10-24T02:49:12.297Z,99.90
2022-10-24T02:51:43.107Z,99.90
2022-10-24T02:54:11.165Z,99.90
2022-10-24T02:56:44.191Z,99.90
2022-10-24T02:59:11.406Z,99.90
2022-10-24T03:01:39.474Z,99.90
2022-10-24T03:04:07.360Z,99.90
2022-10-24T03:06:35.036Z,99.90
2022-10-24T03:09:02.649Z,99.90
2022-10-24T03:11:32.050Z,99.90
2022-10-24T03:13:59.328Z,99.90
2022-10-24T03:16:27.722Z,99.90
2022-10-24T03:18:58.334Z,99.90
2022-10-24T03:21:27.776Z,99.90
2022-10-24T03:23:55.146Z,99.90
2022-10-24T03:26:22.862Z,99.90
2022-10-24T03:28:50.118Z,99.90
2022-10-24T03:31:17.457Z,99.90
2022-10-24T03:33:46.900Z,99.90
2022-10-24T03:36:14.617Z,99.90
2022-10-24T03:38:42.390Z,99.90
2022-10-24T03:41:12.091Z,99.90
2022-10-24T03:43:39.275Z,99.90
2022-10-24T03:46:08.738Z,99.90
2022-10-24T03:48:36.481Z,99.90
2022-10-24T03:51:03.756Z,99.90
2022-10-24T03:53:30.989Z,99.90
2022-10-24T03:56:00.557Z,99.90
2022-10-24T03:58:28.247Z,99.90
2022-10-24T04:00:58.257Z,99.90
2022-10-24T04:03:26.584Z,99.90
2022-10-24T04:05:55.155Z,99.90
2022-10-24T04:08:22.393Z,99.90
2022-10-24T04:10:51.958Z,99.90
2022-10-24T04:13:19.210Z,99.90
2022-10-24T04:15:49.423Z,99.90
2022-10-24T04:18:16.660Z,99.90
2022-10-24T04:20:46.460Z,99.90
2022-10-24T04:23:16.390Z,99.90
2022-10-24T04:25:45.995Z,99.90
2022-10-24T04:28:13.789Z,99.90
2022-10-24T04:30:41.038Z,99.90
2022-10-24T04:33:08.300Z,99.90
2022-10-24T04:35:35.514Z,99.90
2022-10-24T04:38:06.188Z,99.90
2022-10-24T04:40:33.929Z,99.90
2022-10-24T04:43:01.110Z,99.90
2022-10-24T04:45:28.326Z,99.90
2022-10-24T04:47:58.063Z,99.90
2022-10-24T04:50:28.248Z,99.90
2022-10-24T04:52:57.699Z,99.90
2022-10-24T04:55:25.197Z,99.90
2022-10-24T04:57:54.961Z,99.90
2022-10-24T05:00:22.581Z,99.90
2022-10-24T05:02:50.679Z,99.90
2022-10-24T05:05:21.326Z,99.90
2022-10-24T05:07:49.293Z,99.90
2022-10-24T05:10:17.069Z,99.90
2022-10-24T05:12:47.198Z,99.90
2022-10-24T05:15:18.586Z,99.90
2022-10-24T05:17:48.748Z,99.90
2022-10-24T05:20:16.055Z,99.90
2022-10-24T05:22:43.542Z,99.90
2022-10-24T05:25:10.924Z,99.90
2022-10-24T05:27:40.841Z,99.90
2022-10-24T05:30:08.506Z,99.90
2022-10-24T05:32:39.648Z,99.90
2022-10-24T05:35:08.258Z,99.90
2022-10-24T05:37:35.920Z,99.90
2022-10-24T05:40:05.685Z,99.90
2022-10-24T05:42:32.900Z,99.90
2022-10-24T05:45:02.930Z,99.90
2022-10-24T05:47:30.144Z,99.90
2022-10-24T05:49:57.794Z,99.90
2022-10-24T05:52:27.925Z,99.90
2022-10-24T05:55:06.327Z,99.90
2022-10-24T05:57:35.120Z,99.90
2022-10-24T06:00:03.423Z,99.90
2022-10-24T06:02:30.698Z,99.90
2022-10-24T06:04:58.817Z,99.90
2022-10-24T06:07:26.664Z,99.90
2022-10-24T06:09:56.392Z,99.90
2022-10-24T06:12:26.149Z,99.90
2022-10-24T06:14:56.940Z,99.90
2022-10-24T06:17:27.160Z,99.90
2022-10-24T06:19:54.523Z,99.90
2022-10-24T06:22:24.695Z,99.90
2022-10-24T06:24:51.889Z,99.90
2022-10-24T06:27:21.751Z,99.90
2022-10-24T06:29:49.030Z,99.90
2022-10-24T06:32:16.271Z,99.90
2022-10-24T06:34:43.495Z,99.90
2022-10-24T06:37:10.661Z,99.90
2022-10-24T06:39:37.882Z,99.90
2022-10-24T06:42:05.161Z,99.90
2022-10-24T06:44:32.442Z,99.90
2022-10-24T06:46:59.630Z,99.90
2022-10-24T06:49:26.858Z,99.90
2022-10-24T06:51:56.552Z,99.90
2022-10-24T06:54:26.488Z,99.90
2022-10-24T06:56:56.642Z,99.90
2022-10-24T06:59:23.897Z,99.90
2022-10-24T07:01:51.284Z,99.90
2022-10-24T07:04:21.243Z,99.90
2022-10-24T07:06:53.775Z,99.90
2022-10-24T07:09:23.630Z,99.90
2022-10-24T07:11:52.981Z,99.90
2022-10-24T07:14:20.216Z,99.90
2022-10-24T07:16:52.558Z,99.90
2022-10-24T07:19:20.201Z,99.90
2022-10-24T07:21:47.435Z,99.90
2022-10-24T07:24:16.773Z,99.90
2022-10-24T07:26:44.361Z,99.90
2022-10-24T07:29:11.589Z,99.90
2022-10-24T07:31:39.269Z,99.90
2022-10-24T07:34:08.650Z,99.90
2022-10-24T07:36:40.155Z,99.90
2022-10-24T07:39:08.616Z,99.90
2022-10-24T07:41:37.840Z,99.90
2022-10-24T07:44:05.066Z,99.90
2022-10-24T07:46:32.472Z,99.90
2022-10-24T07:48:59.742Z,99.90
2022-10-24T07:51:28.540Z,99.90
2022-10-24T07:53:58.449Z,99.90
2022-10-24T07:56:26.273Z,99.90
2022-10-24T07:58:55.014Z,99.90
2022-10-24T08:01:27.155Z,99.90
2022-10-24T08:03:55.597Z,99.90
2022-10-24T08:06:26.266Z,99.90
2022-10-24T08:08:53.606Z,99.90
2022-10-24T08:11:27.881Z,99.90
2022-10-24T08:13:57.337Z,99.90
2022-10-24T08:16:25.344Z,99.90
2022-10-24T08:18:57.337Z,99.90
2022-10-24T08:21:24.757Z,99.90
2022-10-24T08:23:55.702Z,99.90
2022-10-24T08:26:24.885Z,99.90
2022-10-24T08:28:55.366Z,99.90
2022-10-24T08:31:25.084Z,99.90
2022-10-24T08:33:54.709Z,99.90
2022-10-24T08:36:27.113Z,99.90
2022-10-24T08:38:54.580Z,99.90
2022-10-24T08:41:35.257Z,99.90
2022-10-24T08:44:04.942Z,99.90
2022-10-24T08:47:00.169Z,99.90
2022-10-24T08:49:36.355Z,99.90
2022-10-24T08:52:37.305Z,99.90
2022-10-24T08:55:30.864Z,99.90
2022-10-24T08:58:13.740Z,99.90
2022-10-24T09:00:44.493Z,99.90
2022-10-24T09:03:57.026Z,99.90
2022-10-24T09:06:29.158Z,99.90
2022-10-24T09:09:10.595Z,99.90
2022-10-24T09:11:51.361Z,99.90
2022-10-24T09:14:26.952Z,99.90
2022-10-24T09:17:17.101Z,99.90
2022-10-24T09:19:57.544Z,99.90
2022-10-24T09:22:30.106Z,99.90
2022-10-24T09:25:02.945Z,99.90
2022-10-24T09:27:36.364Z,99.90
2022-10-24T09:30:04.695Z,99.90
2022-10-24T09:32:34.371Z,99.90
2022-10-24T09:35:06.556Z,99.90
2022-10-24T09:37:39.092Z,99.90
2022-10-24T09:40:20.053Z,99.90
2022-10-24T09:42:58.689Z,98.50
2022-10-24T09:45:35.729Z,98.00
2022-10-24T09:48:15.366Z,97.70
2022-10-24T09:50:43.989Z,98.80
2022-10-24T09:53:39.587Z,99.10
2022-10-24T09:56:16.035Z,98.40
2022-10-24T09:58:43.339Z,98.60
2022-10-24T10:01:21.571Z,99.20
2022-10-24T10:04:07.544Z,99.20
2022-10-24T10:06:47.016Z,99.50
2022-10-24T10:09:25.644Z,99.90
2022-10-24T10:12:02.738Z,99.90
2022-10-24T10:14:30.580Z,99.90
2022-10-24T10:17:05.034Z,99.90
2022-10-24T10:19:37.879Z,99.90
2022-10-24T10:22:21.687Z,99.90
2022-10-24T10:24:51.407Z,99.90
2022-10-24T10:27:39.470Z,99.90
2022-10-24T10:30:13.497Z,99.90
2022-10-24T10:32:59.213Z,99.90
2022-10-24T10:35:43.183Z,99.90
2022-10-24T10:38:37.701Z,99.90
2022-10-24T10:41:31.374Z,99.90
2022-10-24T10:44:08.556Z,99.90
2022-10-24T10:47:10.096Z,99.90
2022-10-24T10:49:44.142Z,99.90
2022-10-24T10:52:20.143Z,99.90
2022-10-24T10:55:08.944Z,99.90
2022-10-24T10:57:47.455Z,99.90
2022-10-24T11:00:23.755Z,99.90
2022-10-24T11:03:32.618Z,99.90
2022-10-24T11:06:09.643Z,99.90
2022-10-24T11:09:07.473Z,99.90
2022-10-24T11:11:41.187Z,99.60
2022-10-24T11:14:17.394Z,99.90
2022-10-24T11:16:46.129Z,99.90
2022-10-24T11:19:27.431Z,99.40
2022-10-24T11:22:01.941Z,99.30
2022-10-24T11:24:33.422Z,99.90
2022-10-24T11:27:16.119Z,99.90
2022-10-24T11:29:54.387Z,99.90
2022-10-24T11:32:33.817Z,99.90
2022-10-24T11:35:13.920Z,99.90
2022-10-24T11:37:46.553Z,99.90
2022-10-24T11:40:19.481Z,99.90
2022-10-24T11:43:07.269Z,99.90
2022-10-24T11:45:50.954Z,99.90
2022-10-24T11:48:28.503Z,99.90
2022-10-24T11:51:26.624Z,99.90
2022-10-24T11:54:06.990Z,99.90
2022-10-24T11:57:15.216Z,99.90
2022-10-24T11:59:43.375Z,99.90
2022-10-24T12:02:40.987Z,99.90
2022-10-24T12:05:29.851Z,99.90
2022-10-24T12:08:03.091Z,99.90
2022-10-24T12:10:56.984Z,99.90
2022-10-24T12:13:40.279Z,99.90
2022-10-24T12:16:26.195Z,99.90
2022-10-24T12:19:01.355Z,99.90
2022-10-24T12:21:37.357Z,99.90
2022-10-24T12:24:05.001Z,99.90
2022-10-24T12:26:35.237Z,99.90
2022-10-24T12:29:07.312Z,99.90
2022-10-24T12:31:37.506Z,99.90
2022-10-24T12:34:19.280Z,99.90
2022-10-24T12:37:26.315Z,99.90
2022-10-24T12:39:57.709Z,99.90
2022-10-24T12:42:31.941Z,99.90
2022-10-24T12:45:01.939Z,99.90
2022-10-24T12:47:39.985Z,99.90
2022-10-24T12:50:26.137Z,99.90
2022-10-24T12:52:56.317Z,99.90
2022-10-24T12:55:49.646Z,99.90
2022-10-24T12:58:31.895Z,99.90
2022-10-24T13:01:14.505Z,99.90
2022-10-24T13:04:24.079Z,99.90
2022-10-24T13:07:13.874Z,99.90
2022-10-24T13:10:17.419Z,99.90
2022-10-24T13:12:45.084Z,99.90
2022-10-24T13:15:49.598Z,99.90
2022-10-24T13:18:25.603Z,99.90
2022-10-24T13:21:14.207Z,99.90
2022-10-24T13:23:45.794Z,99.90
2022-10-24T13:26:39.835Z,99.90
2022-10-24T13:29:21.954Z,99.90
2022-10-24T13:31:51.297Z,99.90
2022-10-24T13:34:29.584Z,99.90
2022-10-24T13:37:27.316Z,99.90
2022-10-24T13:40:16.795Z,99.90
2022-10-24T13:43:07.682Z,99.90
2022-10-24T13:45:53.040Z,99.90
2022-10-24T13:48:25.590Z,99.90
2022-10-24T13:51:03.581Z,99.90
2022-10-24T13:53:42.371Z,99.90
2022-10-24T13:56:11.994Z,99.90
2022-10-24T13:58:44.717Z,99.90
2022-10-24T14:01:27.240Z,99.90
2022-10-24T14:03:56.656Z,99.90
2022-10-24T14:06:32.579Z,99.90
2022-10-24T14:09:10.328Z,99.90
2022-10-24T14:11:48.758Z,99.90
2022-10-24T14:14:30.674Z,99.90
2022-10-24T14:17:27.360Z,99.90
2022-10-24T14:20:07.424Z,99.90
2022-10-24T14:22:42.344Z,99.90
2022-10-24T14:25:33.152Z,99.90
2022-10-24T14:28:11.515Z,99.90
2022-10-24T14:30:38.821Z,99.90
2022-10-24T14:33:13.642Z,99.90
2022-10-24T14:35:44.120Z,99.90
2022-10-24T14:38:18.041Z,99.90
2022-10-24T14:40:49.501Z,99.90
2022-10-24T14:43:31.449Z,99.90
2022-10-24T14:46:02.551Z,99.90
2022-10-24T14:48:30.151Z,99.90
2022-10-24T14:51:11.107Z,99.90
2022-10-24T14:53:40.153Z,99.90
2022-10-24T14:56:26.225Z,99.90
2022-10-24T14:59:01.509Z,99.90
2022-10-24T15:01:34.319Z,99.90
2022-10-24T15:04:04.571Z,99.90
2022-10-24T15:06:40.696Z,99.90
2022-10-24T15:09:13.749Z,99.90
2022-10-24T15:11:48.615Z,99.90
2022-10-24T15:14:36.855Z,99.90
2022-10-24T15:17:29.876Z,99.90
2022-10-24T15:20:04.983Z,99.90
2022-10-24T15:22:32.164Z,99.90
2022-10-24T15:25:02.910Z,99.90
2022-10-24T15:27:42.965Z,99.90
2022-10-24T15:30:22.232Z,99.90
2022-10-24T15:32:50.906Z,99.90
2022-10-24T15:35:21.446Z,99.90
2022-10-24T15:38:00.847Z,99.90
2022-10-24T15:40:34.115Z,99.90
2022-10-24T15:43:03.934Z,99.90
2022-10-24T15:45:31.106Z,99.90
2022-10-24T15:47:58.326Z,99.90
2022-10-24T15:50:27.786Z,99.90
2022-10-24T15:53:01.152Z,99.90
2022-10-24T15:55:30.662Z,99.90
2022-10-24T15:57:59.877Z,99.90
2022-10-24T16:00:27.551Z,99.90
2022-10-24T16:03:00.759Z,99.90
2022-10-24T16:05:36.578Z,99.90
2022-10-24T16:08:04.072Z,99.90
2022-10-24T16:10:31.373Z,99.90
2022-10-24T16:12:59.073Z,99.90
2022-10-24T16:18:00.548Z,99.90
2022-10-24T16:20:28.270Z,99.90
2022-10-24T16:22:55.528Z,99.90
2022-10-24T16:25:25.534Z,99.90
2022-10-24T16:27:55.663Z,99.90
2022-10-24T16:30:25.992Z,99.90
2022-10-24T16:32:53.944Z,99.90
2022-10-24T16:35:26.557Z,99.90
2022-10-24T16:37:58.317Z,99.90
2022-10-24T16:40:27.003Z,99.90
2022-10-24T16:43:02.047Z,99.90
2022-10-24T16:45:29.472Z,99.90
2022-10-24T16:47:57.196Z,99.90
2022-10-24T16:50:27.062Z,99.90
2022-10-24T16:53:01.358Z,99.90
2022-10-24T16:55:31.837Z,99.90
2022-10-24T16:58:02.359Z,99.90
2022-10-24T17:00:30.383Z,99.90
2022-10-24T17:02:58.579Z,99.90
2022-10-24T17:05:28.597Z,99.90
2022-10-24T17:07:58.518Z,99.90
2022-10-24T17:10:28.373Z,99.90
2022-10-24T17:13:00.171Z,99.90
2022-10-24T17:15:29.833Z,99.90
2022-10-24T17:17:59.593Z,99.90
2022-10-24T17:20:29.574Z,99.90
2022-10-24T17:23:02.903Z,99.90
2022-10-24T17:25:35.133Z,99.90
2022-10-24T17:28:02.600Z,99.90
2022-10-24T17:30:30.516Z,99.90
2022-10-24T17:32:57.972Z,99.90
2022-10-24T17:35:30.700Z,99.90
2022-10-24T17:38:13.362Z,99.90
2022-10-24T17:40:42.609Z,99.90
2022-10-24T17:43:21.035Z,99.90
2022-10-24T17:45:50.006Z,99.90
2022-10-24T17:48:19.946Z,99.90
2022-10-24T17:50:47.430Z,99.90
2022-10-24T17:53:18.641Z,99.90
2022-10-24T17:55:48.003Z,99.90
2022-10-24T17:58:16.699Z,99.90
2022-10-24T18:00:45.296Z,99.90
2022-10-24T18:03:13.406Z,99.90
2022-10-24T18:05:41.211Z,99.90
2022-10-24T18:08:10.701Z,99.90
2022-10-24T18:10:42.588Z,99.90
2022-10-24T18:13:19.511Z,99.90
2022-10-24T18:15:50.266Z,99.90
2022-10-24T18:18:19.657Z,99.90
2022-10-24T18:20:49.500Z,99.90
2022-10-24T18:23:17.363Z,99.90
2022-10-24T18:25:44.761Z,99.90
2022-10-24T18:28:12.801Z,99.90
2022-10-24T18:30:42.528Z,99.90
2022-10-24T18:33:10.463Z,99.90
2022-10-24T18:35:40.400Z,99.90
2022-10-24T18:38:10.397Z,99.90
2022-10-24T18:40:38.704Z,99.90
2022-10-24T18:43:06.228Z,99.90
2022-10-24T18:45:37.023Z,99.90
2022-10-24T18:48:05.034Z,99.90
2022-10-24T18:50:35.739Z,99.90
2022-10-24T18:53:10.695Z,99.90
2022-10-24T18:55:38.375Z,99.90
2022-10-24T18:58:12.921Z,99.90
2022-10-24T19:00:43.059Z,99.90
2022-10-24T19:03:42.482Z,99.90
2022-10-24T19:06:23.906Z,99.90
2022-10-24T19:08:53.954Z,99.90
2022-10-24T19:11:23.213Z,99.90
2022-10-24T19:13:50.784Z,99.90
2022-10-24T19:16:27.510Z,99.90
2022-10-24T19:18:58.731Z,99.90
2022-10-24T19:21:26.356Z,99.90
2022-10-24T19:23:57.987Z,99.90
2022-10-24T19:26:28.065Z,99.90
2022-10-24T19:28:55.750Z,99.90
2022-10-24T19:31:23.466Z,99.90
2022-10-24T19:33:53.702Z,99.90
2022-10-24T19:39:02.223Z,99.90
2022-10-24T19:41:29.973Z,99.90
2022-10-24T19:43:57.816Z,99.90
2022-10-24T19:46:29.870Z,99.90
2022-10-24T19:49:02.306Z,99.90
2022-10-24T19:51:31.702Z,99.90
2022-10-24T19:54:01.918Z,99.90
2022-10-24T19:56:31.348Z,99.90
2022-10-24T19:58:59.148Z,99.90
2022-10-24T20:01:30.061Z,99.90
2022-10-24T20:04:00.230Z,99.90
2022-10-24T20:06:28.066Z,99.90
2022-10-24T20:08:55.312Z,99.90
2022-10-24T20:11:22.718Z,99.90
2022-10-24T20:13:50.543Z,99.90
2022-10-24T20:16:18.263Z,99.90
2022-10-24T20:18:48.117Z,99.90
2022-10-24T20:21:17.880Z,99.90
2022-10-24T20:23:48.179Z,99.90
2022-10-24T20:26:21.587Z,99.90
2022-10-24T20:28:50.864Z,99.90
2022-10-24T20:31:41.057Z,99.90
2022-10-24T20:34:11.985Z,99.90
2022-10-24T20:36:42.871Z,99.90
2022-10-24T20:39:10.947Z,99.90
2022-10-24T20:41:40.706Z,99.90
2022-10-24T20:44:11.242Z,99.90
2022-10-24T20:46:38.537Z,99.90
2022-10-24T20:49:05.900Z,99.90
2022-10-24T20:51:35.729Z,99.90
2022-10-24T20:54:05.429Z,99.90
2022-10-24T20:56:32.611Z,99.90
2022-10-24T20:59:00.342Z,99.90
2022-10-24T21:01:28.880Z,99.90
2022-10-24T21:03:58.044Z,99.90
2022-10-24T21:06:29.620Z,99.90
2022-10-24T21:09:00.355Z,99.90
2022-10-24T21:11:30.113Z,99.90
2022-10-24T21:14:02.580Z,99.90
2022-10-24T21:16:30.404Z,99.90
2022-10-24T21:19:01.034Z,99.90
2022-10-24T21:21:29.061Z,99.90
2022-10-24T21:24:02.382Z,99.90
2022-10-24T21:26:38.355Z,99.90
2022-10-24T21:29:31.563Z,99.90
2022-10-24T21:31:59.978Z,99.90
2022-10-24T21:34:30.091Z,99.90
2022-10-24T21:37:00.492Z,99.90
2022-10-24T21:39:32.146Z,99.90
2022-10-24T21:41:59.304Z,99.90
2022-10-24T21:44:29.019Z,99.90
2022-10-24T21:47:01.324Z,99.90
2022-10-24T21:49:29.030Z,99.90
2022-10-24T21:51:59.345Z,99.90
2022-10-24T21:54:26.996Z,99.90
2022-10-24T21:56:54.289Z,99.90
2022-10-24T21:59:27.318Z,99.90
2022-10-24T22:01:55.329Z,99.90
2022-10-24T22:04:23.108Z,99.90
2022-10-24T22:06:50.390Z,99.90
2022-10-24T22:09:23.591Z,99.90
2022-10-24T22:11:51.282Z,99.90
2022-10-24T22:14:18.814Z,99.90
2022-10-24T22:16:47.029Z,99.90
2022-10-24T22:19:16.777Z,99.90
2022-10-24T22:21:46.566Z,99.90
2022-10-24T22:24:26.329Z,99.90
2022-10-24T22:26:57.891Z,99.90
2022-10-24T22:29:27.613Z,99.90
2022-10-24T22:31:57.889Z,99.90
2022-10-24T22:34:26.016Z,99.90
2022-10-24T22:37:22.277Z,99.90
2022-10-24T22:39:52.288Z,99.90
2022-10-24T22:42:20.430Z,99.90
2022-10-24T22:44:48.371Z,99.90
2022-10-24T22:47:44.402Z,99.90
2022-10-24T22:50:43.433Z,99.90
2022-10-24T22:53:13.587Z,99.90
2022-10-24T22:55:50.651Z,99.90
2022-10-24T22:58:18.725Z,99.90
2022-10-24T23:00:50.815Z,99.90
2022-10-24T23:03:46.395Z,99.90
2022-10-24T23:06:26.873Z,99.90
2022-10-24T23:08:54.121Z,99.90
2022-10-24T23:11:23.862Z,99.90
2022-10-24T23:13:54.124Z,99.90
2022-10-24T23:16:33.847Z,99.90
2022-10-24T23:19:03.743Z,99.90
2022-10-24T23:21:39.862Z,99.90
2022-10-24T23:24:16.369Z,99.90
2022-10-24T23:26:51.006Z,99.90
2022-10-24T23:29:30.037Z,99.90
2022-10-24T23:32:00.161Z,99.90
2022-10-24T23:34:28.208Z,99.90
2022-10-24T23:37:00.404Z,99.90
2022-10-24T23:39:33.665Z,99.90
2022-10-24T23:42:03.248Z,99.90
2022-10-24T23:44:31.506Z,99.90
2022-10-24T23:47:06.612Z,99.90
2022-10-24T23:49:42.653Z,99.90
2022-10-24T23:52:45.753Z,99.90
2022-10-24T23:55:13.435Z,99.90
2022-10-24T23:57:41.278Z,99.90
